Time;durP1;ratioP1;P1;durP2;ratioP2;P2;SDS_P1;SDS_P2;PMS_P1;PMS_P2;Temp;Humidity;BMP_temperature;BMP_pressure;BME280_temperature;BME280_humidity;BME280_pressure;Samples;Min_cycle;Max_cycle;Signal;HPM_P1;HPM_P2
2023/11/19 00:02:08;;;;;;;5.15;1.77;;;;;;;;;;4905036;29;20103;-80
2023/11/19 00:04:54;;;;;;;4.03;1.90;;;;;;;;;;4907922;29;20032;-80
2023/11/19 00:07:42;;;;;;;3.60;1.92;;;;;;;;;;4903983;29;20150;-80
2023/11/19 00:10:28;;;;;;;2.83;1.98;;;;;;;;;;4881628;29;20420;-79
2023/11/19 00:13:13;;;;;;;3.67;2.40;;;;;;;;;;4887137;29;20392;-80
2023/11/19 00:15:58;;;;;;;3.50;2.40;;;;;;;;;;4902458;29;20032;-80
2023/11/19 00:18:43;;;;;;;3.13;2.15;;;;;;;;;;4903791;29;20490;-79
2023/11/19 00:21:28;;;;;;;4.00;2.00;;;;;;;;;;4905596;29;20079;-80
2023/11/19 00:24:16;;;;;;;3.88;2.22;;;;;;;;;;4901963;29;20028;-79
2023/11/19 00:27:02;;;;;;;12.15;2.28;;;;;;;;;;4901552;29;20035;-81
2023/11/19 00:29:47;;;;;;;3.40;1.50;;;;;;;;;;4889594;29;20486;-81
2023/11/19 00:32:32;;;;;;;11.52;2.53;;;;;;;;;;4898404;29;20040;-79
2023/11/19 00:35:18;;;;;;;2.28;1.60;;;;;;;;;;4905880;29;20091;-80
2023/11/19 00:38:06;;;;;;;3.30;1.10;;;;;;;;;;4903632;29;20630;-81
2023/11/19 00:40:52;;;;;;;2.28;1.60;;;;;;;;;;4905036;29;20269;-81
2023/11/19 00:43:37;;;;;;;1.83;1.20;;;;;;;;;;4908295;29;20095;-80
2023/11/19 00:46:22;;;;;;;3.08;1.75;;;;;;;;;;4906510;29;20125;-79
2023/11/19 00:49:08;;;;;;;3.42;1.65;;;;;;;;;;4901525;29;20111;-81
2023/11/19 00:51:53;;;;;;;1.83;1.33;;;;;;;;;;4906762;29;20059;-80
2023/11/19 00:54:38;;;;;;;2.33;1.50;;;;;;;;;;4905291;29;20024;-79
2023/11/19 00:57:24;;;;;;;2.63;1.45;;;;;;;;;;4908882;29;20123;-80
2023/11/19 01:00:18;;;;;;;1.58;1.20;;;;;;;;;;4906277;29;20063;-81
2023/11/19 01:03:03;;;;;;;2.25;1.27;;;;;;;;;;4903016;29;20040;-82
2023/11/19 01:05:48;;;;;;;3.33;1.45;;;;;;;;;;4903600;29;20031;-82
2023/11/19 01:08:35;;;;;;;2.88;0.90;;;;;;;;;;4900100;29;20635;-81
2023/11/19 01:11:21;;;;;;;5.07;1.00;;;;;;;;;;4904355;29;20470;-80
2023/11/19 01:14:06;;;;;;;1.33;0.90;;;;;;;;;;4902746;29;20023;-82
2023/11/19 01:16:53;;;;;;;1.35;0.85;;;;;;;;;;4905947;29;20036;-81
2023/11/19 01:19:38;;;;;;;2.25;1.30;;;;;;;;;;4908369;29;20103;-80
2023/11/19 01:22:24;;;;;;;1.30;0.93;;;;;;;;;;4908524;29;20028;-80
2023/11/19 01:25:09;;;;;;;2.17;0.73;;;;;;;;;;4894927;29;20914;-80
2023/11/19 01:27:56;;;;;;;3.15;1.23;;;;;;;;;;4903993;29;20036;-83
2023/11/19 01:30:42;;;;;;;1.17;0.90;;;;;;;;;;4897563;29;20336;-80
2023/11/19 01:33:28;;;;;;;3.60;0.75;;;;;;;;;;4900939;29;20043;-80
2023/11/19 01:36:13;;;;;;;1.13;1.02;;;;;;;;;;4926046;29;20475;-79
2023/11/19 01:38:59;;;;;;;1.60;0.80;;;;;;;;;;4908881;29;20079;-82
2023/11/19 01:41:44;;;;;;;3.63;0.80;;;;;;;;;;4900666;29;20117;-81
2023/11/19 01:44:29;;;;;;;7.97;0.73;;;;;;;;;;4907017;29;20031;-82
2023/11/19 01:47:15;;;;;;;1.02;0.70;;;;;;;;;;4909103;29;20039;-83
2023/11/19 01:50:01;;;;;;;1.58;0.80;;;;;;;;;;4916722;29;20143;-83
2023/11/19 01:52:46;;;;;;;2.10;0.77;;;;;;;;;;4900542;29;20036;-82
2023/11/19 01:55:31;;;;;;;1.33;0.70;;;;;;;;;;4912866;29;20043;-83
2023/11/19 01:58:17;;;;;;;1.00;0.90;;;;;;;;;;4906702;29;20027;-83
2023/11/19 02:01:05;;;;;;;1.23;0.80;;;;;;;;;;4872523;29;20027;-80
2023/11/19 02:03:51;;;;;;;2.45;0.90;;;;;;;;;;4896584;29;20032;-84
2023/11/19 02:06:40;;;;;;;1.02;0.70;;;;;;;;;;4911602;29;20036;-83
2023/11/19 02:09:26;;;;;;;1.27;0.60;;;;;;;;;;4897541;29;20029;-80
2023/11/19 02:12:12;;;;;;;0.82;0.70;;;;;;;;;;4902373;29;20016;-84
2023/11/19 02:14:59;;;;;;;0.60;0.60;;;;;;;;;;4900549;29;20174;-83
2023/11/19 02:17:44;;;;;;;0.65;0.63;;;;;;;;;;4900959;29;20040;-83
2023/11/19 02:20:29;;;;;;;0.70;0.70;;;;;;;;;;4905671;29;20095;-83
2023/11/19 02:23:14;;;;;;;0.60;0.60;;;;;;;;;;4906312;29;20043;-82
2023/11/19 02:26:05;;;;;;;0.70;0.60;;;;;;;;;;4906147;29;20035;-82
2023/11/19 02:28:50;;;;;;;2.00;0.88;;;;;;;;;;4904448;29;20031;-83
2023/11/19 02:31:35;;;;;;;2.67;1.48;;;;;;;;;;4886762;29;20028;-82
2023/11/19 02:34:21;;;;;;;2.10;0.90;;;;;;;;;;4890568;29;20028;-82
2023/11/19 02:37:07;;;;;;;1.80;0.80;;;;;;;;;;4901128;29;20027;-82
2023/11/19 02:39:52;;;;;;;0.50;0.50;;;;;;;;;;4899898;29;20372;-82
2023/11/19 02:42:38;;;;;;;1.65;0.70;;;;;;;;;;4901788;29;20027;-82
2023/11/19 02:45:24;;;;;;;0.57;0.57;;;;;;;;;;4902897;29;20036;-82
2023/11/19 02:48:09;;;;;;;0.75;0.60;;;;;;;;;;4903131;29;20036;-82
2023/11/19 02:50:56;;;;;;;0.70;0.60;;;;;;;;;;4902993;29;20056;-82
2023/11/19 02:53:44;;;;;;;1.05;0.70;;;;;;;;;;4902337;29;20032;-82
2023/11/19 02:56:34;;;;;;;0.93;0.60;;;;;;;;;;4906220;29;20395;-82
2023/11/19 02:59:27;;;;;;;1.70;0.80;;;;;;;;;;4906301;29;20451;-82
2023/11/19 03:02:15;;;;;;;0.50;0.50;;;;;;;;;;4907351;29;20028;-81
2023/11/19 03:05:01;;;;;;;0.57;0.50;;;;;;;;;;4896260;29;20039;-82
2023/11/19 03:07:46;;;;;;;2.28;0.60;;;;;;;;;;4927653;29;20079;-82
2023/11/19 03:10:31;;;;;;;1.23;0.90;;;;;;;;;;4906291;29;20024;-81
2023/11/19 03:13:19;;;;;;;2.28;0.82;;;;;;;;;;4898524;29;20020;-82
2023/11/19 03:16:05;;;;;;;2.67;0.70;;;;;;;;;;4914027;29;20099;-82
2023/11/19 03:18:50;;;;;;;1.55;0.75;;;;;;;;;;4917537;29;20028;-82
2023/11/19 03:21:36;;;;;;;0.60;0.60;;;;;;;;;;4904649;29;20020;-82
2023/11/19 03:24:21;;;;;;;0.85;0.52;;;;;;;;;;4905054;29;20494;-83
2023/11/19 03:27:06;;;;;;;0.88;0.60;;;;;;;;;;4904741;29;20518;-81
2023/11/19 03:29:52;;;;;;;1.17;0.50;;;;;;;;;;4900521;29;20171;-82
2023/11/19 03:32:38;;;;;;;1.65;0.50;;;;;;;;;;4908789;29;20028;-82
2023/11/19 03:35:24;;;;;;;0.85;0.52;;;;;;;;;;4909808;29;20580;-83
2023/11/19 03:38:09;;;;;;;0.68;0.60;;;;;;;;;;4911764;29;20090;-82
2023/11/19 03:40:54;;;;;;;0.57;0.55;;;;;;;;;;4903851;29;20444;-82
2023/11/19 03:43:40;;;;;;;3.03;0.57;;;;;;;;;;4908801;29;20130;-82
2023/11/19 03:46:25;;;;;;;3.33;0.70;;;;;;;;;;4904028;29;20494;-82
2023/11/19 03:49:12;;;;;;;0.95;0.63;;;;;;;;;;4905625;29;21238;-82
2023/11/19 03:51:57;;;;;;;2.53;0.70;;;;;;;;;;4907150;29;20035;-82
2023/11/19 03:54:42;;;;;;;3.40;0.80;;;;;;;;;;4906222;29;20044;-82
2023/11/19 03:57:27;;;;;;;2.13;0.70;;;;;;;;;;4911521;29;20063;-82
2023/11/19 04:00:14;;;;;;;1.25;0.60;;;;;;;;;;4902341;29;20388;-81
2023/11/19 04:02:59;;;;;;;0.63;0.60;;;;;;;;;;4901798;29;20395;-82
2023/11/19 04:05:44;;;;;;;0.77;0.50;;;;;;;;;;4904362;29;20053;-82
2023/11/19 04:08:30;;;;;;;0.55;0.55;;;;;;;;;;4918631;29;20383;-82
2023/11/19 04:11:15;;;;;;;0.82;0.57;;;;;;;;;;4898534;29;20119;-81
2023/11/19 04:14:00;;;;;;;0.50;0.50;;;;;;;;;;4900078;29;20107;-82
2023/11/19 04:16:46;;;;;;;0.47;0.47;;;;;;;;;;4895442;29;20028;-81
2023/11/19 04:19:32;;;;;;;0.63;0.63;;;;;;;;;;4904873;29;20075;-81
2023/11/19 04:22:17;;;;;;;0.50;0.50;;;;;;;;;;4905731;29;20052;-81
2023/11/19 04:25:03;;;;;;;0.63;0.50;;;;;;;;;;4902694;29;20056;-82
2023/11/19 04:27:49;;;;;;;1.52;0.43;;;;;;;;;;4905807;29;20376;-82
2023/11/19 04:30:35;;;;;;;1.08;0.70;;;;;;;;;;4903045;29;20040;-83
2023/11/19 04:33:20;;;;;;;1.67;0.50;;;;;;;;;;4901290;29;20040;-82
2023/11/19 04:36:06;;;;;;;1.38;0.70;;;;;;;;;;4899565;29;20039;-83
2023/11/19 04:38:51;;;;;;;0.50;0.50;;;;;;;;;;4904802;29;20494;-83
2023/11/19 04:41:36;;;;;;;0.55;0.50;;;;;;;;;;4903122;29;20036;-82
2023/11/19 04:44:22;;;;;;;0.50;0.50;;;;;;;;;;4911361;29;20036;-82
2023/11/19 04:47:07;;;;;;;0.40;0.40;;;;;;;;;;4899040;29;20113;-82
2023/11/19 04:49:52;;;;;;;0.77;0.60;;;;;;;;;;4899029;29;20059;-83
2023/11/19 04:52:40;;;;;;;1.25;0.60;;;;;;;;;;4899513;29;20050;-83
2023/11/19 04:55:25;;;;;;;0.98;0.75;;;;;;;;;;4900625;29;20043;-83
2023/11/19 05:01:40;;;;;;;1.13;0.60;;;;;;;;;;4895953;29;20033;-83
2023/11/19 05:04:26;;;;;;;0.60;0.60;;;;;;;;;;4910750;29;20091;-81
2023/11/19 05:07:11;;;;;;;1.00;0.50;;;;;;;;;;4902538;29;20071;-82
2023/11/19 05:09:56;;;;;;;0.43;0.43;;;;;;;;;;4901604;29;20123;-83
2023/11/19 05:12:42;;;;;;;0.77;0.77;;;;;;;;;;4901822;29;20625;-83
2023/11/19 05:15:27;;;;;;;0.50;0.50;;;;;;;;;;4904373;29;20048;-83
2023/11/19 05:18:12;;;;;;;0.52;0.50;;;;;;;;;;4902420;29;20091;-82
2023/11/19 05:20:58;;;;;;;0.50;0.50;;;;;;;;;;4902362;29;20071;-83
2023/11/19 05:23:43;;;;;;;0.45;0.45;;;;;;;;;;4918198;29;20032;-81
2023/11/19 05:26:28;;;;;;;0.90;0.60;;;;;;;;;;4898756;29;20483;-83
2023/11/19 05:29:13;;;;;;;0.45;0.45;;;;;;;;;;4900736;29;20617;-83
2023/11/19 05:31:58;;;;;;;0.47;0.47;;;;;;;;;;4908247;29;20024;-83
2023/11/19 05:35:53;;;;;;;0.50;0.50;;;;;;;;;;4916774;29;20061;-81
2023/11/19 05:38:16;;;;;;;0.50;0.50;;;;;;;;;;4904190;29;20032;-82
2023/11/19 05:44:22;;;;;;;1.65;0.50;;;;;;;;;;4902866;29;20143;-81
2023/11/19 05:47:07;;;;;;;1.33;0.65;;;;;;;;;;4904559;29;20032;-82
2023/11/19 05:49:52;;;;;;;0.70;0.70;;;;;;;;;;4905249;29;20051;-82
2023/11/19 05:52:37;;;;;;;2.22;0.68;;;;;;;;;;4907577;29;20047;-82
2023/11/19 05:55:24;;;;;;;0.65;0.52;;;;;;;;;;4895660;29;20403;-82
2023/11/19 05:58:12;;;;;;;0.50;0.50;;;;;;;;;;4901895;29;20032;-82
2023/11/19 06:00:57;;;;;;;0.40;0.40;;;;;;;;;;4913354;29;20554;-83
2023/11/19 06:03:43;;;;;;;0.68;0.50;;;;;;;;;;4907189;29;20032;-83
2023/11/19 06:06:28;;;;;;;0.50;0.50;;;;;;;;;;4907701;29;20063;-82
2023/11/19 06:09:14;;;;;;;2.25;0.60;;;;;;;;;;4909092;29;20035;-83
2023/11/19 06:12:01;;;;;;;0.57;0.57;;;;;;;;;;4912240;29;20031;-82
2023/11/19 06:14:47;;;;;;;0.47;0.47;;;;;;;;;;4904818;29;20040;-82
2023/11/19 06:17:32;;;;;;;0.77;0.77;;;;;;;;;;4892667;29;20084;-82
2023/11/19 06:20:19;;;;;;;2.38;0.73;;;;;;;;;;4913248;29;20060;-81
2023/11/19 06:23:04;;;;;;;0.98;0.65;;;;;;;;;;4910531;29;20278;-83
2023/11/19 06:25:50;;;;;;;1.75;0.60;;;;;;;;;;4911109;29;20036;-80
2023/11/19 06:28:36;;;;;;;1.83;0.68;;;;;;;;;;4908659;29;20030;-82
2023/11/19 06:31:21;;;;;;;0.40;0.40;;;;;;;;;;4910849;29;20039;-83
2023/11/19 06:34:07;;;;;;;0.85;0.73;;;;;;;;;;4888516;29;20067;-81
2023/11/19 06:36:52;;;;;;;0.60;0.60;;;;;;;;;;4903939;29;20028;-82
2023/11/19 06:39:38;;;;;;;1.08;0.65;;;;;;;;;;4906612;29;20084;-83
2023/11/19 06:42:23;;;;;;;0.73;0.52;;;;;;;;;;4901129;29;20464;-82
2023/11/19 06:45:09;;;;;;;0.60;0.60;;;;;;;;;;4889092;29;20036;-83
2023/11/19 06:47:54;;;;;;;1.85;0.68;;;;;;;;;;4902709;29;20391;-83
2023/11/19 06:50:39;;;;;;;0.75;0.70;;;;;;;;;;4901104;29;20637;-83
2023/11/19 06:53:25;;;;;;;0.80;0.80;;;;;;;;;;4891205;29;20028;-84
2023/11/19 06:56:23;;;;;;;0.80;0.50;;;;;;;;;;4903727;29;20051;-83
2023/11/19 06:59:09;;;;;;;2.88;1.08;;;;;;;;;;4904106;29;20043;-83
2023/11/19 07:01:54;;;;;;;0.60;0.60;;;;;;;;;;4905175;29;20451;-82
2023/11/19 07:04:39;;;;;;;0.65;0.65;;;;;;;;;;4908298;29;20035;-82
2023/11/19 07:07:25;;;;;;;0.50;0.50;;;;;;;;;;4923095;29;20118;-83
2023/11/19 07:10:10;;;;;;;0.55;0.50;;;;;;;;;;4897465;29;20036;-82
2023/11/19 07:12:56;;;;;;;0.50;0.50;;;;;;;;;;4903993;29;20031;-82
2023/11/19 07:15:41;;;;;;;3.55;0.90;;;;;;;;;;4906446;29;20051;-81
2023/11/19 07:18:26;;;;;;;1.67;0.70;;;;;;;;;;4905387;29;20039;-81
2023/11/19 07:21:11;;;;;;;0.80;0.65;;;;;;;;;;4907050;29;20501;-83
2023/11/19 07:23:56;;;;;;;0.73;0.63;;;;;;;;;;4915617;29;20039;-83
2023/11/19 07:26:43;;;;;;;0.50;0.50;;;;;;;;;;4903945;29;20379;-83
2023/11/19 07:29:28;;;;;;;0.60;0.60;;;;;;;;;;4905580;29;20036;-83
2023/11/19 07:32:13;;;;;;;0.82;0.82;;;;;;;;;;4927336;29;20024;-83
2023/11/19 07:34:59;;;;;;;1.77;0.70;;;;;;;;;;4931874;29;20123;-82
2023/11/19 07:37:47;;;;;;;0.68;0.68;;;;;;;;;;4914455;29;20031;-82
2023/11/19 07:40:34;;;;;;;1.05;0.73;;;;;;;;;;4930283;29;20063;-83
2023/11/19 07:43:19;;;;;;;0.90;0.70;;;;;;;;;;4913805;29;20040;-82
2023/11/19 07:46:04;;;;;;;1.38;0.80;;;;;;;;;;4899644;29;20036;-82
2023/11/19 07:48:49;;;;;;;1.33;0.90;;;;;;;;;;4906341;29;20091;-83
2023/11/19 07:51:35;;;;;;;1.15;0.60;;;;;;;;;;4905555;29;20044;-83
2023/11/19 07:54:21;;;;;;;2.22;1.25;;;;;;;;;;4891928;29;20040;-82
2023/11/19 07:57:06;;;;;;;2.33;0.80;;;;;;;;;;4901455;29;20031;-83
2023/11/19 07:59:51;;;;;;;1.02;0.75;;;;;;;;;;4908305;29;20032;-84
2023/11/19 08:02:36;;;;;;;0.85;0.80;;;;;;;;;;4904062;29;20868;-84
2023/11/19 08:05:24;;;;;;;5.10;1.10;;;;;;;;;;4897917;29;20439;-83
2023/11/19 08:08:09;;;;;;;2.58;1.10;;;;;;;;;;4900533;29;20035;-83
2023/11/19 08:10:56;;;;;;;0.95;0.80;;;;;;;;;;4902608;29;20281;-82
2023/11/19 08:13:41;;;;;;;2.42;1.10;;;;;;;;;;4890482;29;20084;-82
2023/11/19 08:16:27;;;;;;;2.05;0.80;;;;;;;;;;4910403;29;20038;-82
2023/11/19 08:19:12;;;;;;;1.40;0.95;;;;;;;;;;4902234;29;20040;-82
2023/11/19 08:21:57;;;;;;;1.52;0.98;;;;;;;;;;4904649;29;20032;-82
2023/11/19 08:24:43;;;;;;;2.47;0.80;;;;;;;;;;4904838;29;20028;-83
2023/11/19 08:27:28;;;;;;;3.53;1.00;;;;;;;;;;4903486;29;20116;-84
2023/11/19 08:30:13;;;;;;;1.10;0.90;;;;;;;;;;4902730;29;20143;-83
2023/11/19 08:33:02;;;;;;;0.70;0.70;;;;;;;;;;4894052;29;20036;-83
2023/11/19 08:35:47;;;;;;;1.73;0.95;;;;;;;;;;4894332;29;20048;-83
2023/11/19 08:38:32;;;;;;;1.45;1.13;;;;;;;;;;4909648;29;20559;-82
2023/11/19 08:41:19;;;;;;;2.35;1.20;;;;;;;;;;4901186;29;20040;-83
2023/11/19 08:44:04;;;;;;;1.88;1.10;;;;;;;;;;4899096;29;20431;-83
2023/11/19 08:46:49;;;;;;;1.48;1.10;;;;;;;;;;4899103;29;20178;-82
2023/11/19 08:49:35;;;;;;;1.40;0.98;;;;;;;;;;4910087;29;20111;-82
2023/11/19 08:52:20;;;;;;;2.78;1.42;;;;;;;;;;4907689;29;20031;-82
2023/11/19 08:55:06;;;;;;;5.78;0.98;;;;;;;;;;4894187;29;20040;-82
2023/11/19 08:57:51;;;;;;;2.30;1.00;;;;;;;;;;4901631;29;20086;-83
2023/11/19 09:00:36;;;;;;;1.55;0.80;;;;;;;;;;4904261;29;20111;-83
2023/11/19 09:03:21;;;;;;;1.27;0.73;;;;;;;;;;4910979;29;20446;-82
2023/11/19 09:06:07;;;;;;;3.55;1.10;;;;;;;;;;4908660;29;20484;-84
2023/11/19 09:08:52;;;;;;;2.22;1.20;;;;;;;;;;4891366;29;20039;-83
2023/11/19 09:12:06;;;;;;;3.33;1.08;;;;;;;;;;4900249;29;20091;-83
2023/11/19 09:14:51;;;;;;;0.80;0.80;;;;;;;;;;4915215;29;20111;-83
2023/11/19 09:17:36;;;;;;;3.28;1.20;;;;;;;;;;4904443;29;20027;-82
2023/11/19 09:20:22;;;;;;;0.95;0.70;;;;;;;;;;4917615;29;20032;-81
2023/11/19 09:23:08;;;;;;;1.60;0.80;;;;;;;;;;4909913;29;20068;-83
2023/11/19 09:25:54;;;;;;;0.80;0.60;;;;;;;;;;4920984;29;20051;-83
2023/11/19 09:28:39;;;;;;;1.20;0.95;;;;;;;;;;4908687;29;20107;-83
2023/11/19 09:31:24;;;;;;;1.15;0.82;;;;;;;;;;4911262;29;20490;-84
2023/11/19 09:34:10;;;;;;;2.35;0.90;;;;;;;;;;4900987;29;20579;-83
2023/11/19 09:36:55;;;;;;;3.38;1.17;;;;;;;;;;4905692;29;20107;-81
2023/11/19 09:39:43;;;;;;;2.97;1.25;;;;;;;;;;4907928;29;20036;-82
2023/11/19 09:42:28;;;;;;;2.40;0.80;;;;;;;;;;4913058;29;20036;-83
2023/11/19 09:45:15;;;;;;;1.85;0.98;;;;;;;;;;4918155;29;20055;-83
2023/11/19 09:48:02;;;;;;;1.15;0.80;;;;;;;;;;4917152;29;20034;-84
2023/11/19 09:50:47;;;;;;;3.70;1.08;;;;;;;;;;4912259;29;20114;-83
2023/11/19 09:53:33;;;;;;;2.88;1.08;;;;;;;;;;4907780;29;20388;-86
2023/11/19 09:56:19;;;;;;;4.45;1.80;;;;;;;;;;4907228;29;20028;-86
2023/11/19 09:59:05;;;;;;;1.65;0.90;;;;;;;;;;4907226;29;20530;-84
2023/11/19 10:01:50;;;;;;;3.60;0.95;;;;;;;;;;4903383;29;20063;-83
2023/11/19 10:04:37;;;;;;;4.68;1.25;;;;;;;;;;4915956;29;20028;-83
2023/11/19 10:07:22;;;;;;;1.40;0.90;;;;;;;;;;4907199;29;20043;-83
2023/11/19 10:10:08;;;;;;;0.85;0.80;;;;;;;;;;4887601;29;20035;-83
2023/11/19 10:12:54;;;;;;;0.80;0.70;;;;;;;;;;4894124;29;20547;-83
2023/11/19 10:15:40;;;;;;;4.15;1.10;;;;;;;;;;4895889;29;20464;-83
2023/11/19 10:18:25;;;;;;;1.67;1.27;;;;;;;;;;4909539;29;20513;-83
2023/11/19 10:21:16;;;;;;;2.65;0.77;;;;;;;;;;4918613;29;20119;-84
2023/11/19 10:24:01;;;;;;;1.98;0.80;;;;;;;;;;4918664;29;20031;-83
2023/11/19 10:26:47;;;;;;;2.30;1.02;;;;;;;;;;4913708;29;20091;-83
2023/11/19 10:29:32;;;;;;;0.95;0.60;;;;;;;;;;4912801;29;20012;-86
2023/11/19 10:32:17;;;;;;;0.98;0.90;;;;;;;;;;4910483;29;20107;-86
2023/11/19 10:35:06;;;;;;;0.88;0.70;;;;;;;;;;4906142;29;20036;-84
2023/11/19 10:37:51;;;;;;;1.48;0.82;;;;;;;;;;4905277;29;20515;-85
2023/11/19 10:40:37;;;;;;;1.13;0.90;;;;;;;;;;4891437;29;20038;-86
2023/11/19 10:43:23;;;;;;;1.00;0.90;;;;;;;;;;4899696;29;20123;-86
2023/11/19 10:46:09;;;;;;;4.13;0.80;;;;;;;;;;4905546;29;20075;-87
2023/11/19 10:48:54;;;;;;;2.95;1.20;;;;;;;;;;4883081;29;20080;-84
2023/11/19 10:51:44;;;;;;;0.90;0.90;;;;;;;;;;4884243;29;20051;-84
2023/11/19 10:54:30;;;;;;;1.60;0.80;;;;;;;;;;4903094;29;20475;-84
2023/11/19 10:57:19;;;;;;;2.75;0.80;;;;;;;;;;4906714;29;20337;-84
2023/11/19 11:00:12;;;;;;;2.50;1.67;;;;;;;;;;4904900;29;20214;-84
2023/11/19 11:03:00;;;;;;;4.50;1.55;;;;;;;;;;4910069;29;20127;-84
2023/11/19 11:05:47;;;;;;;3.33;1.17;;;;;;;;;;4914514;29;20035;-83
2023/11/19 11:08:36;;;;;;;3.08;1.00;;;;;;;;;;4904416;29;20369;-81
2023/11/19 11:11:22;;;;;;;1.92;0.70;;;;;;;;;;4921942;29;20035;-77
2023/11/19 11:14:09;;;;;;;1.83;0.85;;;;;;;;;;4912155;29;20038;-82
2023/11/19 11:17:00;;;;;;;1.85;0.60;;;;;;;;;;4900902;29;20436;-80
2023/11/19 11:19:48;;;;;;;3.42;1.13;;;;;;;;;;4900508;29;20478;-80
2023/11/19 11:22:40;;;;;;;2.67;0.82;;;;;;;;;;4899803;29;20071;-80
2023/11/19 11:25:28;;;;;;;1.80;0.80;;;;;;;;;;4894251;29;20040;-79
2023/11/19 11:28:14;;;;;;;5.90;1.10;;;;;;;;;;4900531;29;20060;-79
2023/11/19 11:31:09;;;;;;;2.58;0.90;;;;;;;;;;4897989;29;20020;-79
2023/11/19 11:34:13;;;;;;;4.32;0.80;;;;;;;;;;4901373;29;20534;-79
2023/11/19 11:36:58;;;;;;;1.65;0.77;;;;;;;;;;4900892;29;20088;-79
2023/11/19 11:39:45;;;;;;;1.35;0.70;;;;;;;;;;4886622;29;20035;-79
2023/11/19 11:42:34;;;;;;;3.35;0.90;;;;;;;;;;4903569;29;20115;-78
2023/11/19 11:45:34;;;;;;;2.60;0.80;;;;;;;;;;4913455;29;20743;-80
2023/11/19 11:48:21;;;;;;;2.80;1.08;;;;;;;;;;4912165;29;20269;-79
2023/11/19 11:51:06;;;;;;;1.65;0.80;;;;;;;;;;4900090;29;20571;-79
2023/11/19 11:53:52;;;;;;;2.33;0.90;;;;;;;;;;4899971;29;20046;-78
2023/11/19 11:56:37;;;;;;;1.55;1.00;;;;;;;;;;4902334;29;20537;-79
2023/11/19 11:59:23;;;;;;;3.40;1.10;;;;;;;;;;4892718;29;20039;-80
2023/11/19 12:02:09;;;;;;;3.53;1.10;;;;;;;;;;4902387;29;20028;-79
2023/11/19 12:04:54;;;;;;;5.55;1.27;;;;;;;;;;4903620;29;20079;-82
2023/11/19 12:07:40;;;;;;;2.97;1.25;;;;;;;;;;4903532;29;20042;-81
2023/11/19 12:10:26;;;;;;;1.88;1.10;;;;;;;;;;4905649;29;20056;-79
2023/11/19 12:13:14;;;;;;;5.45;1.05;;;;;;;;;;4903055;29;20040;-81
2023/11/19 12:15:59;;;;;;;1.48;0.90;;;;;;;;;;4902848;29;20044;-82
2023/11/19 12:18:44;;;;;;;1.45;0.70;;;;;;;;;;4901153;29;20032;-81
2023/11/19 12:21:31;;;;;;;1.58;0.75;;;;;;;;;;4899691;29;20551;-81
2023/11/19 12:24:16;;;;;;;1.38;0.75;;;;;;;;;;4898573;29;20119;-80
2023/11/19 12:27:01;;;;;;;2.70;0.80;;;;;;;;;;4900515;29;20031;-81
2023/11/19 12:29:47;;;;;;;3.42;1.20;;;;;;;;;;4880932;29;20036;-80
2023/11/19 12:32:39;;;;;;;3.63;1.75;;;;;;;;;;4894487;29;20032;-81
2023/11/19 12:35:25;;;;;;;0.95;0.80;;;;;;;;;;4888376;29;20039;-81
2023/11/19 12:38:22;;;;;;;1.52;0.80;;;;;;;;;;4898680;29;20020;-80
2023/11/19 12:41:11;;;;;;;0.70;0.70;;;;;;;;;;4907849;29;20040;-81
2023/11/19 12:44:08;;;;;;;2.30;0.80;;;;;;;;;;4904766;29;20040;-80
2023/11/19 12:47:01;;;;;;;1.30;0.85;;;;;;;;;;4893042;29;20138;-80
2023/11/19 12:49:55;;;;;;;2.25;1.13;;;;;;;;;;4905061;29;20047;-79
2023/11/19 12:52:40;;;;;;;1.70;0.90;;;;;;;;;;4908441;29;20043;-79
2023/11/19 12:55:29;;;;;;;6.25;1.08;;;;;;;;;;4889349;29;20088;-79
2023/11/19 12:58:34;;;;;;;0.95;0.75;;;;;;;;;;4896935;29;20567;-78
2023/11/19 13:01:20;;;;;;;1.65;0.90;;;;;;;;;;4904737;29;20076;-79
2023/11/19 13:04:18;;;;;;;3.17;0.82;;;;;;;;;;4902454;29;20035;-80
2023/11/19 13:07:04;;;;;;;4.00;1.52;;;;;;;;;;4904115;29;20036;-79
2023/11/19 13:09:50;;;;;;;1.13;0.80;;;;;;;;;;4905848;29;20046;-79
2023/11/19 13:12:38;;;;;;;5.68;1.02;;;;;;;;;;4904601;29;20479;-78
2023/11/19 13:15:24;;;;;;;0.70;0.70;;;;;;;;;;4907864;29;20039;-81
2023/11/19 13:18:10;;;;;;;1.70;0.98;;;;;;;;;;4899792;29;20032;-82
2023/11/19 13:20:57;;;;;;;2.60;0.70;;;;;;;;;;4904855;29;20103;-80
2023/11/19 13:23:43;;;;;;;3.25;1.25;;;;;;;;;;4907937;29;20100;-83
2023/11/19 13:26:28;;;;;;;1.25;0.85;;;;;;;;;;4889285;29;20028;-80
2023/11/19 13:29:14;;;;;;;2.40;1.05;;;;;;;;;;4902656;29;20135;-79
2023/11/19 13:31:59;;;;;;;3.15;1.00;;;;;;;;;;4900742;29;20572;-80
2023/11/19 13:34:45;;;;;;;1.05;0.60;;;;;;;;;;4892978;29;20520;-80
2023/11/19 13:37:31;;;;;;;1.25;0.80;;;;;;;;;;4894486;29;20043;-79
2023/11/19 13:40:16;;;;;;;0.98;0.77;;;;;;;;;;4901687;29;20047;-80
2023/11/19 13:43:01;;;;;;;2.65;0.80;;;;;;;;;;4902490;29;20087;-81
2023/11/19 13:45:47;;;;;;;3.60;1.10;;;;;;;;;;4898566;29;20114;-78
2023/11/19 13:48:32;;;;;;;1.58;1.15;;;;;;;;;;4901545;29;20039;-79
2023/11/19 13:51:17;;;;;;;3.25;0.80;;;;;;;;;;4906698;29;20458;-80
2023/11/19 13:54:02;;;;;;;1.38;0.77;;;;;;;;;;4905706;29;20765;-79
2023/11/19 13:56:48;;;;;;;3.95;0.88;;;;;;;;;;4905404;29;20511;-80
2023/11/19 13:59:39;;;;;;;1.23;1.08;;;;;;;;;;4906740;29;20083;-79
2023/11/19 14:02:24;;;;;;;2.58;0.90;;;;;;;;;;4906065;29;20510;-79
2023/11/19 14:05:12;;;;;;;2.75;0.80;;;;;;;;;;4903811;29;20452;-79
2023/11/19 14:07:58;;;;;;;1.48;0.93;;;;;;;;;;4904621;29;20067;-78
2023/11/19 14:10:49;;;;;;;2.78;1.10;;;;;;;;;;4905303;29;20028;-79
2023/11/19 14:13:34;;;;;;;1.63;1.02;;;;;;;;;;4900521;29;20042;-79
2023/11/19 14:16:20;;;;;;;1.15;0.93;;;;;;;;;;4903634;29;20047;-80
2023/11/19 14:19:05;;;;;;;1.88;1.20;;;;;;;;;;4893678;29;20063;-79
2023/11/19 14:21:51;;;;;;;2.92;0.98;;;;;;;;;;4903493;29;20127;-77
2023/11/19 14:24:36;;;;;;;2.05;0.90;;;;;;;;;;4903800;29;20032;-80
2023/11/19 14:27:22;;;;;;;2.45;1.00;;;;;;;;;;4906785;29;20360;-79
2023/11/19 14:30:09;;;;;;;2.13;1.08;;;;;;;;;;4905415;29;20402;-81
2023/11/19 14:32:54;;;;;;;2.67;1.15;;;;;;;;;;4890758;29;20095;-80
2023/11/19 14:35:39;;;;;;;2.53;1.10;;;;;;;;;;4906485;29;20044;-81
2023/11/19 14:38:24;;;;;;;1.58;0.88;;;;;;;;;;4906683;29;20062;-80
2023/11/19 14:41:09;;;;;;;3.35;1.10;;;;;;;;;;4905140;29;20032;-80
2023/11/19 14:43:55;;;;;;;2.65;1.15;;;;;;;;;;4889559;29;20111;-80
2023/11/19 14:46:40;;;;;;;3.83;0.90;;;;;;;;;;4903150;29;20119;-79
2023/11/19 14:49:26;;;;;;;2.35;0.90;;;;;;;;;;4900812;29;20055;-79
2023/11/19 14:52:12;;;;;;;1.73;1.02;;;;;;;;;;4889710;29;20028;-79
2023/11/19 14:54:57;;;;;;;2.33;0.90;;;;;;;;;;4901178;29;20442;-79
2023/11/19 14:57:43;;;;;;;2.85;1.27;;;;;;;;;;4910675;29;20031;-91
2023/11/19 15:00:29;;;;;;;3.83;1.42;;;;;;;;;;4905192;29;20030;-91
2023/11/19 15:03:16;;;;;;;2.67;1.08;;;;;;;;;;4916754;29;20467;-89
2023/11/19 15:06:01;;;;;;;2.88;0.90;;;;;;;;;;4921527;29;20027;-90
2023/11/19 15:08:47;;;;;;;3.17;1.27;;;;;;;;;;4923028;29;20099;-88
2023/11/19 15:11:32;;;;;;;1.98;1.10;;;;;;;;;;4923742;29;20091;-93
2023/11/19 15:23:12;;;;;;;3.55;1.50;;;;;;;;;;4933321;29;20039;-89
2023/11/19 15:25:57;;;;;;;1.52;1.30;;;;;;;;;;4942806;28;20081;-79
2023/11/19 15:28:43;;;;;;;1.77;0.82;;;;;;;;;;4955221;28;20031;-78
2023/11/19 15:31:28;;;;;;;3.45;1.13;;;;;;;;;;4942247;28;20035;-78
2023/11/19 15:34:14;;;;;;;1.55;0.80;;;;;;;;;;4940607;28;20537;-76
2023/11/19 15:37:00;;;;;;;1.10;0.80;;;;;;;;;;4947125;28;20026;-77
2023/11/19 15:39:46;;;;;;;1.75;0.93;;;;;;;;;;4946210;28;20470;-80
2023/11/19 15:42:32;;;;;;;2.85;0.90;;;;;;;;;;4941564;28;20160;-79
2023/11/19 15:45:17;;;;;;;1.42;1.10;;;;;;;;;;4952287;28;20083;-81
2023/11/19 15:48:02;;;;;;;1.73;1.10;;;;;;;;;;4970722;28;20145;-81
2023/11/19 15:50:47;;;;;;;3.70;1.20;;;;;;;;;;4946759;28;20570;-80
2023/11/19 15:53:33;;;;;;;2.15;1.10;;;;;;;;;;4942348;28;20027;-80
2023/11/19 15:56:19;;;;;;;2.17;1.40;;;;;;;;;;4937683;28;20038;-90
2023/11/19 15:59:04;;;;;;;2.13;1.60;;;;;;;;;;4940299;28;20428;-84
2023/11/19 16:01:49;;;;;;;1.60;1.05;;;;;;;;;;4946778;28;20034;-84
2023/11/19 16:04:38;;;;;;;3.47;1.50;;;;;;;;;;4938906;28;20611;-91
2023/11/19 16:07:23;;;;;;;1.92;1.00;;;;;;;;;;4952889;28;20035;-91
2023/11/19 16:10:09;;;;;;;2.75;1.02;;;;;;;;;;4931949;28;20023;-81
2023/11/19 16:12:54;;;;;;;1.63;0.80;;;;;;;;;;4928669;29;20035;-83
2023/11/19 16:15:39;;;;;;;4.85;1.40;;;;;;;;;;4926467;29;20076;-83
2023/11/19 16:18:25;;;;;;;4.10;1.15;;;;;;;;;;4921012;29;20047;-82
2023/11/19 16:21:10;;;;;;;1.17;0.85;;;;;;;;;;4921451;29;20020;-82
2023/11/19 16:23:55;;;;;;;2.63;1.50;;;;;;;;;;4928735;29;20043;-81
2023/11/19 16:26:40;;;;;;;4.53;1.58;;;;;;;;;;4917521;29;20111;-82
2023/11/19 16:29:25;;;;;;;2.25;0.80;;;;;;;;;;4922941;29;20028;-80
2023/11/19 16:32:11;;;;;;;2.10;0.70;;;;;;;;;;4920280;29;20494;-81
2023/11/19 16:34:56;;;;;;;1.92;1.08;;;;;;;;;;4927064;29;20133;-82
2023/11/19 16:37:42;;;;;;;3.10;1.38;;;;;;;;;;4934579;29;20027;-81
2023/11/19 16:40:27;;;;;;;4.28;1.38;;;;;;;;;;4923376;29;20655;-81
2023/11/19 16:43:12;;;;;;;4.35;1.40;;;;;;;;;;4927530;29;20027;-80
2023/11/19 16:45:58;;;;;;;4.90;1.38;;;;;;;;;;4908275;29;20062;-80
2023/11/19 16:48:49;;;;;;;8.25;1.73;;;;;;;;;;4938382;28;20060;-80
2023/11/19 16:51:34;;;;;;;3.08;1.77;;;;;;;;;;4912983;29;20197;-80
2023/11/19 16:54:19;;;;;;;4.47;1.23;;;;;;;;;;4917551;29;20020;-80